Time;durP1;ratioP1;P1;durP2;ratioP2;P2;SDS_P1;SDS_P2;PMS_P1;PMS_P2;Temp;Humidity;BMP_temperature;BMP_pressure;BME280_temperature;BME280_humidity;BME280_pressure;Samples;Min_cycle;Max_cycle;Signal;HPM_P1;HPM_P2
2022/06/19 00:00:08;;;;;;;5.55;2.50;;;;;;;21.46;47.82;100178.44;4365118;32;33019;-80
2022/06/19 00:02:57;;;;;;;4.45;2.33;;;;;;;21.36;48.15;100179.22;4353800;32;32055;-79
2022/06/19 00:05:28;;;;;;;4.22;2.22;;;;;;;21.42;47.93;100174.53;4353012;32;33944;-80
2022/06/19 00:07:56;;;;;;;4.22;2.40;;;;;;;21.36;48.17;100179.22;4352417;32;33412;-80
2022/06/19 00:10:31;;;;;;;5.65;2.40;;;;;;;21.32;48.58;100177.22;4364809;32;33984;-80
2022/06/19 00:13:01;;;;;;;5.00;2.60;;;;;;;21.28;48.68;100173.28;4364702;32;32039;-80
2022/06/19 00:15:29;;;;;;;5.90;2.33;;;;;;;21.26;48.70;100167.13;4352477;32;33697;-79
2022/06/19 00:18:01;;;;;;;6.68;2.50;;;;;;;21.20;49.02;100169.00;4364747;32;34342;-80
2022/06/19 00:20:29;;;;;;;5.65;2.47;;;;;;;21.17;49.29;100169.53;4352600;32;33332;-79
2022/06/19 00:22:59;;;;;;;4.57;2.08;;;;;;;21.16;49.17;100161.44;4352457;32;34266;-80
2022/06/19 00:25:34;;;;;;;4.60;2.30;;;;;;;21.21;48.85;100164.28;4364797;32;33759;-79
2022/06/19 00:28:04;;;;;;;4.57;2.50;;;;;;;21.16;48.88;100165.06;4352883;32;34203;-79
2022/06/19 00:30:32;;;;;;;6.32;2.50;;;;;;;21.11;49.14;100165.03;4365345;32;34809;-79
2022/06/19 00:33:07;;;;;;;5.62;2.47;;;;;;;21.10;49.26;100160.56;4365343;32;34186;-79
2022/06/19 00:35:35;;;;;;;5.43;2.45;;;;;;;21.01;49.57;100162.16;4352390;32;32664;-79
2022/06/19 00:38:09;;;;;;;4.95;2.40;;;;;;;20.96;49.78;100167.69;4364630;32;35104;-79
2022/06/19 00:40:36;;;;;;;5.75;2.70;;;;;;;20.93;49.80;100169.06;4364638;32;33874;-80
2022/06/19 00:43:05;;;;;;;5.35;2.28;;;;;;;20.92;50.03;100164.59;4364544;32;34318;-79
2022/06/19 00:45:51;;;;;;;4.00;2.50;;;;;;;20.86;49.86;100162.00;4364292;32;34747;-80
2022/06/19 00:48:28;;;;;;;5.22;2.40;;;;;;;20.92;49.49;100156.22;4352754;32;34248;-80
2022/06/19 00:50:59;;;;;;;6.22;2.20;;;;;;;20.93;49.38;100157.06;4364621;32;34036;-80
2022/06/19 00:53:29;;;;;;;5.72;2.55;;;;;;;20.82;49.71;100155.28;4364978;32;33658;-80
2022/06/19 00:55:58;;;;;;;3.80;2.25;;;;;;;20.83;49.74;100159.75;4352180;32;34367;-79
2022/06/19 00:58:37;;;;;;;4.45;2.55;;;;;;;20.81;49.70;100154.44;4352154;32;35379;-79
2022/06/19 01:01:08;;;;;;;5.57;2.35;;;;;;;20.93;49.54;100145.91;4352159;32;33193;-79
2022/06/19 01:03:43;;;;;;;4.45;2.20;;;;;;;20.82;49.84;100146.91;4364097;32;32142;-79
2022/06/19 01:06:17;;;;;;;;;;;;;;;20.73;50.25;100151.31;4352186;32;33409;-79
2022/06/19 01:08:46;;;;;;;6.00;2.53;;;;;;;20.70;50.18;100145.16;4352458;32;33116;-79
2022/06/19 01:11:15;;;;;;;3.83;2.47;;;;;;;20.70;50.05;100150.75;4351986;32;32529;-81
2022/06/19 01:13:46;;;;;;;6.30;2.40;;;;;;;20.74;49.93;100148.25;4364278;32;33380;-80
2022/06/19 01:16:17;;;;;;;4.40;2.60;;;;;;;20.76;50.00;100143.25;4352097;32;32949;-80
2022/06/19 01:18:45;;;;;;;4.30;2.42;;;;;;;20.63;50.58;100143.69;4351585;32;34112;-79
2022/06/19 01:21:21;;;;;;;4.37;2.25;;;;;;;20.66;50.51;100141.22;4351430;32;33964;-81
2022/06/19 01:24:04;;;;;;;4.12;2.40;;;;;;;20.61;50.68;100126.38;4363205;32;33514;-79
2022/06/19 01:26:37;;;;;;;5.20;2.58;;;;;;;20.73;50.47;100137.38;4363547;32;34485;-79
2022/06/19 01:29:08;;;;;;;4.57;2.08;;;;;;;20.52;51.03;100131.59;4363725;32;35334;-79
2022/06/19 01:31:41;;;;;;;3.90;2.30;;;;;;;20.48;51.21;100129.59;4351525;32;33187;-80
2022/06/19 01:34:31;;;;;;;4.28;2.33;;;;;;;20.50;51.00;100131.00;4351619;32;31983;-80
2022/06/19 01:37:08;;;;;;;5.37;2.42;;;;;;;20.56;50.59;100129.97;4364471;32;33617;-79
2022/06/19 01:39:49;;;;;;;5.50;2.37;;;;;;;20.40;50.96;100128.13;4351762;32;34397;-79
2022/06/19 01:42:16;;;;;;;4.82;2.40;;;;;;;20.59;50.42;100132.22;4351579;32;34741;-80
2022/06/19 01:44:45;;;;;;;5.18;2.40;;;;;;;20.52;50.68;100131.59;4363731;32;34205;-80
2022/06/19 01:47:14;;;;;;;4.20;2.05;;;;;;;20.50;50.75;100130.16;4351376;32;33845;-80
2022/06/19 01:49:53;;;;;;;4.40;2.37;;;;;;;20.49;50.67;100134.91;4363813;32;34274;-81
2022/06/19 01:52:22;;;;;;;4.55;2.28;;;;;;;20.37;51.01;100136.97;4363463;32;33317;-79
2022/06/19 01:54:59;;;;;;;5.62;2.35;;;;;;;20.53;50.43;100133.28;4351421;32;33679;-80
2022/06/19 01:57:30;;;;;;;4.57;2.40;;;;;;;20.56;50.35;100131.91;4364278;32;34684;-80
2022/06/19 02:00:03;;;;;;;4.40;2.28;;;;;;;20.47;50.60;100125.97;4353553;32;32946;-79
2022/06/19 02:02:39;;;;;;;4.40;2.20;;;;;;;20.48;50.70;100130.44;4366623;32;34581;-79
2022/06/19 02:05:07;;;;;;;6.72;2.40;;;;;;;20.47;50.85;100119.53;4341078;32;31963;-79
2022/06/19 02:07:38;;;;;;;5.68;2.40;;;;;;;20.51;50.56;100115.13;4365409;32;31984;-80
2022/06/19 02:10:06;;;;;;;4.05;2.30;;;;;;;20.48;50.59;100112.84;4365583;32;34449;-79
2022/06/19 02:12:39;;;;;;;4.57;2.45;;;;;;;20.41;50.86;100107.50;4353269;32;33470;-79
2022/06/19 02:15:09;;;;;;;5.78;2.37;;;;;;;20.34;51.07;100110.47;4365619;32;34413;-79
2022/06/19 02:17:44;;;;;;;6.93;2.60;;;;;;;20.35;51.04;100105.72;4353153;32;32221;-79
2022/06/19 02:20:14;;;;;;;4.20;2.20;;;;;;;20.37;50.94;100106.31;4353426;32;32983;-80
2022/06/19 02:22:43;;;;;;;4.20;2.35;;;;;;;20.34;51.05;100101.25;4365573;32;34802;-80
2022/06/19 02:25:15;;;;;;;5.12;2.40;;;;;;;20.30;51.16;100102.88;4353931;32;34495;-81
2022/06/19 02:27:43;;;;;;;4.43;2.50;;;;;;;20.20;51.45;100111.13;4353529;32;33805;-80
2022/06/19 02:30:17;;;;;;;4.82;2.65;;;;;;;20.34;51.04;100113.25;4353247;32;34294;-79
2022/06/19 02:32:50;;;;;;;4.20;2.50;;;;;;;20.31;51.13;100107.34;4365852;32;34037;-80
2022/06/19 02:35:24;;;;;;;5.25;2.53;;;;;;;20.38;50.99;100116.38;4366110;32;33359;-79
2022/06/19 02:37:55;;;;;;;3.87;2.33;;;;;;;20.16;51.54;100112.75;4353051;32;32372;-79
2022/06/19 02:40:44;;;;;;;5.12;2.22;;;;;;;20.14;51.59;100115.84;4365357;32;32953;-80
2022/06/19 02:43:17;;;;;;;4.32;2.20;;;;;;;20.24;51.31;100120.66;4365151;32;34148;-81
2022/06/19 02:45:44;;;;;;;5.35;2.40;;;;;;;20.12;51.57;100106.06;4352992;32;33116;-80
2022/06/19 02:48:26;;;;;;;4.05;2.28;;;;;;;20.22;51.31;100111.72;4353046;32;33653;-80
2022/06/19 02:50:55;;;;;;;6.47;2.72;;;;;;;20.21;51.38;100099.72;4365461;32;35496;-80
2022/06/19 02:53:26;;;;;;;5.43;2.28;;;;;;;20.18;51.61;100105.81;4353017;32;33685;-79
2022/06/19 02:55:57;;;;;;;4.00;2.30;;;;;;;20.12;51.89;100100.47;4365199;32;33420;-79
2022/06/19 02:58:30;;;;;;;4.32;2.33;;;;;;;20.09;52.08;100099.06;4365507;32;33599;-80
2022/06/19 03:00:58;;;;;;;5.10;2.05;;;;;;;20.05;52.34;100100.69;4353125;32;34476;-79
2022/06/19 03:03:35;;;;;;;5.32;2.20;;;;;;;20.10;52.15;100103.53;4365243;32;34068;-79
2022/06/19 03:06:04;;;;;;;4.70;2.35;;;;;;;20.06;52.27;100103.22;4353089;32;31803;-80
2022/06/19 03:08:34;;;;;;;4.28;2.40;;;;;;;20.02;52.55;100098.41;4353060;32;34407;-80
2022/06/19 03:11:08;;;;;;;4.47;2.50;;;;;;;20.06;52.37;100102.38;4352954;32;35500;-80
2022/06/19 03:13:36;;;;;;;5.25;2.20;;;;;;;20.08;52.52;100093.75;4352772;32;33847;-79
2022/06/19 03:16:07;;;;;;;4.62;2.70;;;;;;;20.03;52.85;100095.38;4352492;32;33576;-79
2022/06/19 03:18:38;;;;;;;4.60;2.40;;;;;;;19.94;53.21;100093.31;4364641;32;32439;-79
2022/06/19 03:21:10;;;;;;;4.97;2.30;;;;;;;19.91;53.81;100091.87;4353456;32;35014;-79
2022/06/19 03:23:41;;;;;;;5.62;2.33;;;;;;;19.86;53.85;100090.97;4341412;32;33544;-80
2022/06/19 03:26:09;;;;;;;5.05;2.42;;;;;;;20.00;53.47;100097.84;4352894;32;33969;-79
2022/06/19 03:28:39;;;;;;;5.05;2.55;;;;;;;20.03;53.19;100084.22;4353105;32;33446;-79
2022/06/19 03:31:07;;;;;;;6.15;2.35;;;;;;;20.05;53.10;100087.59;4378669;32;34364;-80
2022/06/19 03:33:38;;;;;;;8.13;2.50;;;;;;;20.00;53.49;100081.13;4352920;32;34120;-79
2022/06/19 03:36:07;;;;;;;4.47;2.83;;;;;;;20.06;53.42;100078.13;4353059;32;31997;-80
2022/06/19 03:38:38;;;;;;;4.68;2.65;;;;;;;20.11;53.26;100093.22;4352992;32;34534;-79
2022/06/19 03:41:08;;;;;;;4.55;2.60;;;;;;;20.06;53.51;100086.50;4339841;32;33268;-79
2022/06/19 03:43:37;;;;;;;4.50;2.60;;;;;;;20.15;53.23;100088.81;4365137;32;33532;-79
2022/06/19 03:46:13;;;;;;;5.40;2.60;;;;;;;20.10;53.34;100089.59;4364765;32;33347;-79
2022/06/19 03:48:47;;;;;;;6.80;2.67;;;;;;;20.21;53.10;100091.37;4352485;32;33272;-79
2022/06/19 03:51:22;;;;;;;4.20;2.62;;;;;;;20.14;53.47;100092.69;4365169;32;35150;-80
2022/06/19 03:53:51;;;;;;;;;;;;;;;20.18;53.48;100083.53;4365586;32;33727;-80
2022/06/19 03:56:25;;;;;;;8.80;2.90;;;;;;;20.29;53.37;100088.09;4352706;32;32934;-80
2022/06/19 03:58:56;;;;;;;5.55;2.85;;;;;;;20.30;53.46;100091.72;4352866;32;33752;-80
2022/06/19 04:01:35;;;;;;;5.75;2.70;;;;;;;20.20;54.06;100094.41;4352384;32;33584;-79
2022/06/19 04:04:05;;;;;;;4.28;2.45;;;;;;;20.26;54.02;100090.56;4352699;32;33987;-79
2022/06/19 04:06:40;;;;;;;5.10;3.00;;;;;;;20.33;53.96;100085.63;4353018;32;33328;-79
2022/06/19 04:09:14;;;;;;;6.85;2.60;;;;;;;20.37;54.18;100084.00;4352440;32;33100;-79
2022/06/19 04:11:43;;;;;;;6.15;2.83;;;;;;;20.45;53.93;100083.56;4364876;32;34390;-80
2022/06/19 04:14:11;;;;;;;6.53;2.75;;;;;;;20.42;54.03;100083.25;4352635;32;33900;-80
2022/06/19 04:16:40;;;;;;;6.97;3.20;;;;;;;20.42;54.22;100077.66;4364765;32;34230;-80
2022/06/19 04:19:13;;;;;;;6.50;2.95;;;;;;;20.42;54.43;100083.25;4364843;32;33776;-79
2022/06/19 04:21:43;;;;;;;6.20;3.20;;;;;;;20.49;54.26;100084.72;4352320;32;34419;-79
2022/06/19 04:24:13;;;;;;;7.25;3.08;;;;;;;20.55;54.15;100083.66;4352346;32;32511;-80
2022/06/19 04:26:41;;;;;;;6.32;3.10;;;;;;;20.63;54.12;100085.13;4352309;32;33803;-79
2022/06/19 04:29:13;;;;;;;5.12;3.00;;;;;;;20.68;54.12;100076.81;4352020;32;34541;-79
2022/06/19 04:31:44;;;;;;;5.20;3.17;;;;;;;20.73;54.09;100074.06;4352316;32;33021;-79
2022/06/19 04:34:12;;;;;;;7.47;2.97;;;;;;;20.76;54.21;100073.53;4352273;32;33381;-79
2022/06/19 04:36:40;;;;;;;7.03;3.00;;;;;;;20.79;54.33;100064.63;4352581;32;34230;-79
2022/06/19 04:39:09;;;;;;;6.43;2.70;;;;;;;20.85;54.36;100069.09;4352097;32;33997;-80
2022/06/19 04:41:43;;;;;;;7.00;3.08;;;;;;;20.93;54.36;100078.94;4352161;32;34095;-80
2022/06/19 04:44:17;;;;;;;6.78;2.92;;;;;;;20.97;54.34;100083.72;4352463;32;34767;-80
2022/06/19 04:46:47;;;;;;;5.85;2.85;;;;;;;21.01;54.16;100079.28;4351763;32;32239;-80
2022/06/19 04:49:16;;;;;;;6.40;2.78;;;;;;;21.13;53.87;100079.06;4352208;32;32372;-80
2022/06/19 04:51:44;;;;;;;6.82;2.90;;;;;;;21.18;53.94;100087.50;4364797;32;34617;-81
2022/06/19 04:54:12;;;;;;;7.35;3.08;;;;;;;21.25;53.84;100088.13;4352513;32;34049;-79
2022/06/19 04:56:40;;;;;;;6.53;2.87;;;;;;;21.37;53.58;100085.13;4364375;32;33714;-80
2022/06/19 04:59:08;;;;;;;6.30;2.90;;;;;;;21.47;53.19;100087.09;4339973;32;32222;-79
2022/06/19 05:01:40;;;;;;;4.32;2.80;;;;;;;21.47;53.33;100087.09;4349283;32;35320;-80
2022/06/19 05:04:11;;;;;;;4.68;2.78;;;;;;;21.59;53.18;100084.94;4349439;32;32525;-80
2022/06/19 05:06:42;;;;;;;5.97;2.80;;;;;;;21.67;52.78;100095.59;4361677;32;33319;-80
2022/06/19 05:09:10;;;;;;;6.25;3.00;;;;;;;21.75;52.71;100102.63;4349254;32;32349;-80
2022/06/19 05:11:37;;;;;;;4.20;2.53;;;;;;;21.80;52.73;100097.91;4349454;32;34379;-80
2022/06/19 05:14:05;;;;;;;4.75;2.78;;;;;;;21.91;52.58;100101.56;4349376;32;33472;-80
2022/06/19 05:16:33;;;;;;;5.85;3.10;;;;;;;22.00;52.41;100095.19;4349363;32;33452;-80
2022/06/19 05:19:04;;;;;;;5.55;2.75;;;;;;;22.09;52.47;100103.91;4349364;32;32462;-80
2022/06/19 05:21:32;;;;;;;4.22;2.60;;;;;;;22.15;52.62;100104.75;4349331;32;32926;-80
2022/06/19 05:24:00;;;;;;;5.20;2.67;;;;;;;22.20;52.30;100105.59;4336922;32;32682;-80
2022/06/19 05:26:32;;;;;;;5.22;3.00;;;;;;;22.28;52.02;100113.44;4349259;32;34382;-80
2022/06/19 05:29:01;;;;;;;7.15;2.90;;;;;;;22.37;52.12;100105.37;4362455;32;33980;-80
2022/06/19 05:31:32;;;;;;;5.47;3.22;;;;;;;22.45;52.21;100096.44;4361296;32;34111;-80
2022/06/19 05:34:02;;;;;;;5.78;3.03;;;;;;;22.58;51.86;100104.28;4363179;32;33932;-79
2022/06/19 05:36:39;;;;;;;5.35;2.92;;;;;;;22.61;51.43;100100.94;4340619;32;32003;-80
2022/06/19 05:39:11;;;;;;;4.87;2.75;;;;;;;22.73;51.48;100095.06;4351110;32;33908;-79
2022/06/19 05:41:40;;;;;;;5.12;3.08;;;;;;;22.76;51.97;100102.03;4363046;32;34374;-79
2022/06/19 05:44:10;;;;;;;5.55;3.20;;;;;;;22.83;51.67;100102.63;4338914;32;32726;-80
2022/06/19 05:46:41;;;;;;;7.78;2.97;;;;;;;22.95;51.59;100095.63;4351021;32;33749;-80
2022/06/19 05:49:12;;;;;;;5.45;3.33;;;;;;;23.06;51.79;100102.06;4351269;32;33884;-80
2022/06/19 05:51:42;;;;;;;6.55;3.28;;;;;;;23.21;51.42;100099.25;4363203;32;34511;-79
2022/06/19 05:54:11;;;;;;;7.70;3.35;;;;;;;23.23;50.73;100097.00;4351259;32;35030;-80
2022/06/19 05:56:39;;;;;;;5.78;2.80;;;;;;;23.21;50.94;100098.41;4338721;32;31694;-80
2022/06/19 05:59:06;;;;;;;6.57;2.95;;;;;;;23.36;50.45;100100.34;4363194;32;33693;-79
2022/06/19 06:01:37;;;;;;;5.50;2.97;;;;;;;23.49;50.78;100096.94;4350799;32;34395;-79
2022/06/19 06:04:05;;;;;;;9.70;3.28;;;;;;;23.57;50.48;100107.59;4363114;32;34003;-80
2022/06/19 06:06:35;;;;;;;5.30;3.03;;;;;;;23.69;50.44;100108.13;4351126;32;34551;-80
2022/06/19 06:09:06;;;;;;;7.15;2.80;;;;;;;23.68;50.08;100097.19;4350724;32;33733;-79
2022/06/19 06:11:36;;;;;;;4.85;2.90;;;;;;;23.79;49.45;100096.88;4364116;32;34626;-80
2022/06/19 06:14:07;;;;;;;7.12;3.17;;;;;;;23.90;49.19;100103.28;4350889;32;33984;-80
2022/06/19 06:16:35;;;;;;;4.00;2.40;;;;;;;24.06;49.08;100101.22;4363209;32;33466;-80
2022/06/19 06:19:07;;;;;;;6.20;2.80;;;;;;;24.11;49.25;100095.59;4350603;32;33559;-79
2022/06/19 06:21:35;;;;;;;5.03;2.70;;;;;;;24.21;49.36;100090.75;4338565;32;32842;-80
2022/06/19 06:24:03;;;;;;;4.82;2.60;;;;;;;24.33;48.57;100096.06;4350603;32;33994;-80
2022/06/19 06:26:33;;;;;;;4.28;2.60;;;;;;;24.39;48.70;100094.91;4362944;32;33346;-80
2022/06/19 06:29:01;;;;;;;5.55;2.62;;;;;;;24.53;48.88;100103.50;4350610;32;33298;-80
2022/06/19 06:31:29;;;;;;;4.20;2.62;;;;;;;24.58;48.60;100106.28;4350615;32;34091;-80
2022/06/19 06:33:57;;;;;;;7.43;2.72;;;;;;;24.69;48.07;100105.06;4350684;32;34284;-80
2022/06/19 06:36:31;;;;;;;6.05;2.70;;;;;;;24.77;47.30;100101.63;4350653;32;33818;-80
2022/06/19 06:39:00;;;;;;;6.43;2.70;;;;;;;24.76;45.64;100105.56;4350536;32;32675;-79
2022/06/19 06:41:28;;;;;;;4.15;2.33;;;;;;;24.85;45.08;100112.22;4350678;32;35314;-80
2022/06/19 06:43:55;;;;;;;4.10;2.50;;;;;;;25.02;44.75;100106.22;4362372;32;33870;-80
2022/06/19 06:46:26;;;;;;;5.28;2.65;;;;;;;25.10;43.25;100104.75;4362825;32;34224;-80
2022/06/19 06:48:59;;;;;;;6.10;2.70;;;;;;;25.25;41.97;100097.03;4350221;32;34000;-79
2022/06/19 06:51:27;;;;;;;5.30;2.40;;;;;;;25.27;40.68;100107.97;4361802;32;34729;-80
2022/06/19 06:53:56;;;;;;;5.68;2.60;;;;;;;25.46;40.44;100106.06;4350722;32;34119;-80
2022/06/19 06:56:25;;;;;;;4.75;2.50;;;;;;;25.58;40.29;100108.47;4362716;32;33448;-79
2022/06/19 06:58:55;;;;;;;5.55;2.83;;;;;;;25.57;40.39;100102.00;4350609;32;33779;-80
2022/06/19 07:01:30;;;;;;;5.05;2.55;;;;;;;25.70;41.23;100099.66;4362541;32;35381;-80
2022/06/19 07:03:59;;;;;;;4.82;2.67;;;;;;;25.73;40.41;100105.50;4350340;32;33977;-81
2022/06/19 07:06:31;;;;;;;4.82;2.60;;;;;;;25.85;39.85;100108.75;4350223;32;33563;-80
2022/06/19 07:08:59;;;;;;;4.85;2.40;;;;;;;26.01;39.06;100116.94;4362315;32;33822;-80
2022/06/19 07:11:33;;;;;;;4.60;2.42;;;;;;;26.05;39.02;100109.59;4362352;32;35051;-79
2022/06/19 07:14:01;;;;;;;3.50;2.10;;;;;;;26.06;38.71;100116.88;4350601;32;33905;-80
2022/06/19 07:16:28;;;;;;;3.75;2.30;;;;;;;26.20;38.08;100104.59;4350259;32;33011;-80
2022/06/19 07:19:01;;;;;;;4.70;2.50;;;;;;;26.22;37.48;100099.50;4350400;32;34083;-79
2022/06/19 07:21:31;;;;;;;4.03;2.12;;;;;;;26.34;37.30;100096.28;4350569;32;35274;-79
2022/06/19 07:24:00;;;;;;;4.75;2.25;;;;;;;26.37;37.50;100092.88;4350479;32;34692;-79
2022/06/19 07:26:33;;;;;;;6.82;2.25;;;;;;;26.41;38.00;100102.38;4350326;32;33400;-80
2022/06/19 07:29:05;;;;;;;4.70;2.30;;;;;;;26.41;37.60;100096.75;4350356;32;33609;-79
2022/06/19 07:31:35;;;;;;;5.72;2.12;;;;;;;26.68;36.03;100103.62;4335066;32;33823;-80
2022/06/19 07:34:06;;;;;;;3.92;2.05;;;;;;;26.76;35.69;100095.31;4361627;32;34204;-79
2022/06/19 07:36:43;;;;;;;4.00;2.37;;;;;;;26.80;35.57;100096.41;4362347;32;33623;-79
2022/06/19 07:39:14;;;;;;;5.10;2.53;;;;;;;26.88;36.39;100094.84;4338431;32;32200;-79
2022/06/19 07:41:45;;;;;;;3.95;2.28;;;;;;;26.98;34.86;100093.88;4337451;32;33570;-79
2022/06/19 07:44:13;;;;;;;7.43;2.37;;;;;;;26.93;34.74;100091.97;4360353;32;34831;-80
2022/06/19 07:52:18;;;;;;;4.00;2.33;;;;;;;27.28;35.00;100081.25;4347373;33;34362;-79
2022/06/19 07:54:51;;;;;;;4.68;2.55;;;;;;;27.34;35.59;100080.81;4347800;32;32428;-79
2022/06/19 07:57:26;;;;;;;5.00;2.70;;;;;;;27.45;35.92;100082.28;4361653;32;33443;-80
2022/06/19 07:59:56;;;;;;;4.80;2.35;;;;;;;27.47;36.59;100074.34;4360831;32;33702;-78
2022/06/19 08:02:27;;;;;;;5.55;2.70;;;;;;;27.53;36.72;100081.56;4348944;32;34591;-80
2022/06/19 08:05:02;;;;;;;5.07;2.67;;;;;;;27.71;37.13;100074.19;4361925;32;34921;-80
2022/06/19 08:07:30;;;;;;;4.78;2.45;;;;;;;27.87;36.42;100072.72;4349377;32;33488;-79
2022/06/19 08:09:59;;;;;;;4.95;2.25;;;;;;;27.84;35.77;100064.06;4361691;32;33822;-79
2022/06/19 08:12:33;;;;;;;4.00;2.37;;;;;;;27.97;33.69;100056.69;4367429;32;34016;-80
2022/06/19 08:15:03;;;;;;;5.53;2.30;;;;;;;28.05;33.47;100058.78;4354269;32;32976;-79
2022/06/19 08:17:36;;;;;;;4.43;2.28;;;;;;;27.95;33.94;100065.47;4366718;32;33065;-79
2022/06/19 08:20:05;;;;;;;5.20;2.70;;;;;;;28.13;32.71;100060.87;4355556;32;34944;-79
2022/06/19 08:22:37;;;;;;;5.97;2.60;;;;;;;28.30;32.51;100055.41;4361763;32;34394;-80
2022/06/19 08:25:08;;;;;;;7.03;2.70;;;;;;;28.33;32.92;100051.97;4362339;32;34071;-79
2022/06/19 08:27:41;;;;;;;7.85;2.30;;;;;;;28.43;34.71;100046.09;4362235;32;34331;-79
2022/06/19 08:30:13;;;;;;;5.05;2.47;;;;;;;28.47;32.88;100041.47;4363714;32;33793;-79
2022/06/19 08:32:45;;;;;;;5.18;2.05;;;;;;;28.51;30.98;100039.66;4367200;32;35135;-79
2022/06/19 08:35:19;;;;;;;3.60;2.05;;;;;;;28.75;30.27;100044.16;4377017;32;33961;-81
2022/06/19 08:37:54;;;;;;;6.10;2.28;;;;;;;28.96;29.77;100039.69;4374744;32;34397;-80
2022/06/19 08:40:24;;;;;;;;;;;;;;;29.09;29.86;100037.94;4369099;32;33832;-79
2022/06/19 08:43:15;;;;;;;6.82;2.37;;;;;;;29.17;30.18;100040.81;4366153;32;35649;-79
2022/06/19 08:45:44;;;;;;;4.43;2.10;;;;;;;29.23;31.07;100043.50;4369428;32;34722;-80
2022/06/19 08:48:41;;;;;;;5.47;2.47;;;;;;;29.21;29.54;100037.34;4355273;32;31970;-79
2022/06/19 08:51:27;;;;;;;5.95;2.95;;;;;;;29.26;29.29;100032.34;4367875;32;34571;-79
2022/06/19 08:54:10;;;;;;;8.15;2.50;;;;;;;29.45;30.13;100047.09;4367712;32;33933;-82
2022/06/19 08:56:55;;;;;;;3.87;2.10;;;;;;;29.38;29.59;100034.56;4354847;32;33458;-82
2022/06/19 08:59:58;;;;;;;5.07;2.10;;;;;;;29.50;28.95;100037.66;4355610;32;34519;-81
2022/06/19 09:02:52;;;;;;;7.05;2.62;;;;;;;29.71;29.19;100038.72;4360495;32;33881;-81
2022/06/19 09:05:44;;;;;;;5.22;2.53;;;;;;;29.94;29.57;100035.78;4367478;32;34250;-82
2022/06/19 09:08:31;;;;;;;8.55;2.95;;;;;;;30.13;29.21;100034.34;4356488;32;32333;-81
2022/06/19 09:11:22;;;;;;;5.68;2.42;;;;;;;30.18;28.82;100047.50;4367329;32;34296;-82
2022/06/19 09:13:57;;;;;;;4.32;2.17;;;;;;;30.35;28.62;100036.22;4345679;32;32355;-81
2022/06/19 09:16:34;;;;;;;;;;;;;;;30.43;28.12;100029.72;4367078;32;34325;-83
2022/06/19 09:19:16;;;;;;;4.95;2.17;;;;;;;30.62;27.58;100034.22;4366704;32;34578;-83
2022/06/19 09:22:19;;;;;;;4.20;2.40;;;;;;;30.42;26.75;100036.53;4354326;32;32724;-85
2022/06/19 09:25:12;;;;;;;5.62;2.80;;;;;;;30.68;27.64;100025.22;4368316;32;34111;-83
2022/06/19 09:28:17;;;;;;;3.28;1.95;;;;;;;30.76;28.64;100017.88;4353827;32;34383;-85
2022/06/19 09:30:53;;;;;;;5.15;2.25;;;;;;;30.82;26.18;100019.34;4308928;33;33876;-85
2022/06/19 09:33:51;;;;;;;5.00;2.20;;;;;;;31.08;25.79;100010.81;4331881;32;31854;-83
2022/06/19 09:36:52;;;;;;;4.07;2.00;;;;;;;31.19;25.54;100014.97;4309884;32;32206;-85
2022/06/19 09:39:42;;;;;;;5.00;2.42;;;;;;;31.43;25.74;99997.34;4367011;32;34307;-84
2022/06/19 09:42:15;;;;;;;4.43;2.33;;;;;;;31.62;25.39;100003.44;4354841;32;34247;-85
2022/06/19 09:45:02;;;;;;;6.65;2.50;;;;;;;31.68;25.31;100001.25;4354155;32;34259;-83
2022/06/19 09:47:38;;;;;;;5.78;3.10;;;;;;;31.77;25.36;100005.72;4364821;32;33760;-84
2022/06/19 09:50:47;;;;;;;6.75;3.30;;;;;;;31.79;24.97;99998.88;4357374;32;33021;-85
2022/06/19 09:53:35;;;;;;;5.60;3.00;;;;;;;32.08;25.66;99996.81;4366806;32;34148;-84
2022/06/19 09:56:29;;;;;;;7.70;3.30;;;;;;;32.31;25.22;100005.03;4346971;32;32020;-84
2022/06/19 09:59:21;;;;;;;6.10;3.12;;;;;;;32.34;25.73;99988.13;4366985;32;35013;-85
2022/06/19 10:01:56;;;;;;;6.30;2.40;;;;;;;32.46;24.95;99995.03;4367544;32;34164;-85
2022/06/19 10:04:36;;;;;;;3.95;2.10;;;;;;;32.68;23.26;99986.09;4367152;32;34187;-85
2022/06/19 10:07:10;;;;;;;6.10;2.40;;;;;;;32.89;23.05;99981.25;4365530;32;33510;-84
2022/06/19 10:10:25;;;;;;;5.57;3.20;;;;;;;33.09;23.32;99985.22;4366637;32;34906;-84
2022/06/19 10:13:02;;;;;;;7.12;2.45;;;;;;;33.16;24.43;99978.91;4342925;32;35319;-84
2022/06/19 10:15:32;;;;;;;4.55;2.47;;;;;;;33.09;23.03;99988.06;4364860;32;34135;-84
2022/06/19 10:18:16;;;;;;;4.55;1.92;;;;;;;33.26;23.20;99967.06;4354099;32;34224;-87
2022/06/19 10:20:57;;;;;;;5.07;1.80;;;;;;;33.56;22.30;99965.69;4357800;32;34383;-86
2022/06/19 10:23:39;;;;;;;4.57;2.05;;;;;;;33.73;22.12;99958.94;4365887;32;33005;-86
2022/06/19 10:26:37;;;;;;;6.70;1.70;;;;;;;33.98;21.56;99965.44;4359890;32;32654;-85
2022/06/19 10:29:40;;;;;;;3.75;1.90;;;;;;;34.05;21.71;99962.81;4343373;32;33077;-80
2022/06/19 10:32:27;;;;;;;4.37;2.00;;;;;;;34.00;23.02;99954.50;4347658;33;34619;-84
2022/06/19 10:35:20;;;;;;;8.32;2.50;;;;;;;34.27;22.55;99959.41;4335802;33;33862;-81
2022/06/19 10:37:57;;;;;;;9.70;2.75;;;;;;;34.40;21.16;99940.28;4348169;33;34633;-82
2022/06/19 10:40:51;;;;;;;5.55;2.08;;;;;;;34.52;22.67;99942.22;4349096;33;33483;-80
2022/06/19 10:43:35;;;;;;;5.80;2.10;;;;;;;34.74;21.01;99940.81;4347496;33;32188;-80
2022/06/19 10:46:09;;;;;;;7.43;1.85;;;;;;;34.46;20.64;99933.13;4348946;33;34287;-80
2022/06/19 10:48:56;;;;;;;10.88;2.33;;;;;;;34.76;20.75;99927.84;4347939;33;34923;-80
2022/06/19 10:51:38;;;;;;;6.45;2.30;;;;;;;34.87;20.68;99923.31;4348837;33;34030;-81
2022/06/19 10:54:24;;;;;;;9.32;4.30;;;;;;;34.86;21.56;99915.13;4360158;32;32140;-80
2022/06/19 10:57:10;;;;;;;4.37;1.80;;;;;;;35.04;21.46;99915.59;4347894;33;35043;-83
2022/06/19 10:59:37;;;;;;;4.40;1.65;;;;;;;34.82;20.18;99920.72;4360249;32;34693;-83
2022/06/19 11:05:28;;;;;;;5.20;1.87;;;;;;;35.06;20.52;99911.19;4363272;32;33831;-81
2022/06/19 11:07:56;;;;;;;3.53;2.10;;;;;;;35.22;20.60;99916.84;4362605;32;33032;-83
2022/06/19 11:10:30;;;;;;;8.23;2.65;;;;;;;35.33;20.34;99901.69;4362445;32;33759;-84
2022/06/19 11:13:00;;;;;;;5.43;1.95;;;;;;;35.41;20.16;99908.41;4362653;32;33505;-84
2022/06/19 11:15:42;;;;;;;3.12;1.67;;;;;;;35.20;20.61;99907.84;4362241;32;33610;-79
2022/06/19 11:18:20;;;;;;;4.62;1.60;;;;;;;35.40;19.92;99908.78;4362214;32;35181;-84
2022/06/19 11:21:06;;;;;;;3.50;1.77;;;;;;;35.49;20.21;99904.53;4362385;32;33249;-84
2022/06/19 11:23:51;;;;;;;6.87;1.75;;;;;;;35.64;19.60;99897.13;4360796;32;33419;-85
2022/06/19 11:26:39;;;;;;;5.80;1.60;;;;;;;35.70;19.37;99903.38;4361814;32;34109;-85
2022/06/19 11:29:13;;;;;;;5.62;1.50;;;;;;;35.69;19.87;99893.16;4359302;32;34542;-81
2022/06/19 11:31:59;;;;;;;4.20;1.60;;;;;;;35.79;20.06;99895.44;4347573;32;32548;-81
2022/06/19 11:37:24;;;;;;;4.65;1.60;;;;;;;36.06;21.06;99865.84;4351207;32;32264;-83
2022/06/19 11:39:58;;;;;;;3.20;1.50;;;;;;;36.13;19.78;99880.28;4350057;32;35159;-82
2022/06/19 11:42:29;;;;;;;4.37;1.58;;;;;;;36.18;19.17;99873.44;4362154;32;33434;-85
2022/06/19 11:45:01;;;;;;;2.47;1.50;;;;;;;36.23;19.07;99867.44;4362258;32;34118;-81
2022/06/19 11:47:38;;;;;;;3.28;1.45;;;;;;;36.24;19.10;99878.47;4362468;32;34548;-82
2022/06/19 11:50:24;;;;;;;4.97;1.67;;;;;;;36.36;18.96;99874.69;4368291;32;35127;-82
2022/06/19 11:52:59;;;;;;;6.53;1.65;;;;;;;36.63;18.59;99872.72;4351827;32;33706;-77
2022/06/19 11:55:31;;;;;;;5.93;1.70;;;;;;;36.54;18.85;99877.84;4349978;32;33171;-78
2022/06/19 11:58:39;;;;;;;2.10;1.30;;;;;;;36.78;20.53;99879.56;4346241;32;109637;-79
2022/06/19 12:01:12;;;;;;;7.95;1.62;;;;;;;36.67;18.46;99876.47;4371114;32;34470;-79
2022/06/19 12:03:57;;;;;;;4.32;1.50;;;;;;;36.55;21.50;99870.94;4362869;32;33999;-84
2022/06/19 12:06:45;;;;;;;;;;;;;;;36.50;19.13;99863.50;4365085;32;34366;-84
2022/06/19 12:09:53;;;;;;;3.67;1.50;;;;;;;36.49;19.53;99855.28;4365792;32;33899;-83
2022/06/19 12:12:24;;;;;;;3.30;1.70;;;;;;;36.58;18.29;99856.69;4351120;32;34484;-83